sensor_id;sensor_type;location;lat;lon;timestamp;pressure;altitude;pressure_sealevel;temperature;humidity
71559;BME280;59382;43.852;25.952;2023-09-18T00:04:00;101802.75;;;22.58;52.11
71559;BME280;59382;43.852;25.952;2023-09-18T00:06:25;101808.19;;;22.53;52.25
71559;BME280;59382;43.852;25.952;2023-09-18T00:08:51;101791.56;;;22.38;52.39
71559;BME280;59382;43.852;25.952;2023-09-18T00:11:17;101796.25;;;22.42;52.38
71559;BME280;59382;43.852;25.952;2023-09-18T00:13:43;101793.16;;;22.34;52.54
71559;BME280;59382;43.852;25.952;2023-09-18T00:16:08;101789.88;;;22.32;52.61
71559;BME280;59382;43.852;25.952;2023-09-18T00:18:34;101785.09;;;22.22;52.80
71559;BME280;59382;43.852;25.952;2023-09-18T00:20:59;101798.06;;;22.27;52.85
71559;BME280;59382;43.852;25.952;2023-09-18T00:23:25;101791.44;;;22.23;52.82
71559;BME280;59382;43.852;25.952;2023-09-18T00:25:51;101774.03;;;22.12;52.88
71559;BME280;59382;43.852;25.952;2023-09-18T00:28:16;101795.78;;;22.19;52.86
71559;BME280;59382;43.852;25.952;2023-09-18T00:30:42;101796.84;;;22.13;52.96
71559;BME280;59382;43.852;25.952;2023-09-18T00:33:11;101797.34;;;22.10;53.08
71559;BME280;59382;43.852;25.952;2023-09-18T00:35:37;101800.38;;;22.08;53.35
71559;BME280;59382;43.852;25.952;2023-09-18T00:38:03;101802.84;;;22.10;53.26
71559;BME280;59382;43.852;25.952;2023-09-18T00:40:29;101793.22;;;22.07;53.18
71559;BME280;59382;43.852;25.952;2023-09-18T00:42:55;101793.47;;;22.06;53.19
71559;BME280;59382;43.852;25.952;2023-09-18T00:45:20;101790.13;;;21.99;53.51
71559;BME280;59382;43.852;25.952;2023-09-18T00:47:46;101791.78;;;22.00;53.46
71559;BME280;59382;43.852;25.952;2023-09-18T00:50:12;101790.13;;;21.99;53.54
71559;BME280;59382;43.852;25.952;2023-09-18T00:52:38;101779.91;;;21.94;53.46
71559;BME280;59382;43.852;25.952;2023-09-18T00:55:06;101791.78;;;22.00;53.64
71559;BME280;59382;43.852;25.952;2023-09-18T00:57:32;101792.28;;;21.97;53.68
71559;BME280;59382;43.852;25.952;2023-09-18T00:59:58;101788.16;;;21.94;53.63
71559;BME280;59382;43.852;25.952;2023-09-18T01:02:23;101796.66;;;21.93;53.61
71559;BME280;59382;43.852;25.952;2023-09-18T01:04:49;101772.28;;;21.75;53.78
71559;BME280;59382;43.852;25.952;2023-09-18T01:07:15;101795.41;;;21.79;53.91
71559;BME280;59382;43.852;25.952;2023-09-18T01:09:41;101768.78;;;21.58;54.06
71559;BME280;59382;43.852;25.952;2023-09-18T01:15:29;101790.28;;;21.66;54.15
71559;BME280;59382;43.852;25.952;2023-09-18T01:17:56;101774.75;;;21.50;54.36
71559;BME280;59382;43.852;25.952;2023-09-18T01:20:22;101780.53;;;21.53;54.44
71559;BME280;59382;43.852;25.952;2023-09-18T01:22:47;101783.03;;;21.55;54.61
71559;BME280;59382;43.852;25.952;2023-09-18T01:25:15;101781.88;;;21.51;54.45
71559;BME280;59382;43.852;25.952;2023-09-18T01:27:40;101786.59;;;21.55;54.58
71559;BME280;59382;43.852;25.952;2023-09-18T01:30:07;101762.34;;;21.47;54.57
71559;BME280;59382;43.852;25.952;2023-09-18T01:32:34;101769.19;;;21.45;54.58
71559;BME280;59382;43.852;25.952;2023-09-18T01:35:02;101774.78;;;21.55;54.58
71559;BME280;59382;43.852;25.952;2023-09-18T01:37:31;101767.03;;;21.47;54.54
71559;BME280;59382;43.852;25.952;2023-09-18T01:39:59;101762.03;;;21.44;54.58
71559;BME280;59382;43.852;25.952;2023-09-18T01:42:26;101775.03;;;21.53;54.60
71559;BME280;59382;43.852;25.952;2023-09-18T01:44:55;101772.78;;;21.45;54.57
71559;BME280;59382;43.852;25.952;2023-09-18T01:47:21;101762.88;;;21.44;54.66
71559;BME280;59382;43.852;25.952;2023-09-18T01:49:52;101776.63;;;21.44;54.55
71559;BME280;59382;43.852;25.952;2023-09-18T01:52:17;101787.91;;;21.48;54.72
71559;BME280;59382;43.852;25.952;2023-09-18T01:54:43;101790.09;;;21.46;54.84
71559;BME280;59382;43.852;25.952;2023-09-18T01:57:09;101783.44;;;21.42;54.86
71559;BME280;59382;43.852;25.952;2023-09-18T01:59:35;101775.16;;;21.37;54.75
71559;BME280;59382;43.852;25.952;2023-09-18T02:02:00;101777.91;;;21.37;54.92
71559;BME280;59382;43.852;25.952;2023-09-18T02:04:29;101767.88;;;21.25;55.07
71559;BME280;59382;43.852;25.952;2023-09-18T02:06:55;101796.59;;;21.40;55.22
71559;BME280;59382;43.852;25.952;2023-09-18T02:09:21;101793.78;;;21.34;55.00
71559;BME280;59382;43.852;25.952;2023-09-18T02:11:47;101805.41;;;21.42;55.20
71559;BME280;59382;43.852;25.952;2023-09-18T02:14:15;101793.28;;;21.38;55.05
71559;BME280;59382;43.852;25.952;2023-09-18T02:16:42;101780.66;;;21.37;55.06
71559;BME280;59382;43.852;25.952;2023-09-18T02:19:13;101788.88;;;21.37;54.91
71559;BME280;59382;43.852;25.952;2023-09-18T02:21:39;101789.94;;;21.35;55.17
71559;BME280;59382;43.852;25.952;2023-09-18T02:24:05;101785.31;;;21.36;55.06
71559;BME280;59382;43.852;25.952;2023-09-18T02:26:30;101812.63;;;21.48;54.89
71559;BME280;59382;43.852;25.952;2023-09-18T02:28:59;101802.13;;;21.45;55.15
71559;BME280;59382;43.852;25.952;2023-09-18T02:31:24;101808.97;;;21.42;55.07
71559;BME280;59382;43.852;25.952;2023-09-18T02:33:50;101800.41;;;21.38;55.05
71559;BME280;59382;43.852;25.952;2023-09-18T02:36:16;101811.25;;;21.50;54.96
71559;BME280;59382;43.852;25.952;2023-09-18T02:38:42;101808.47;;;21.45;54.80
71559;BME280;59382;43.852;25.952;2023-09-18T02:41:08;101817.06;;;21.54;54.76
71559;BME280;59382;43.852;25.952;2023-09-18T02:43:33;101819.50;;;21.50;54.61
71559;BME280;59382;43.852;25.952;2023-09-18T02:45:59;101816.19;;;21.48;54.74
71559;BME280;59382;43.852;25.952;2023-09-18T02:48:24;101811.41;;;21.38;54.88
71559;BME280;59382;43.852;25.952;2023-09-18T02:50:50;101821.06;;;21.41;54.81
71559;BME280;59382;43.852;25.952;2023-09-18T02:53:21;101822.38;;;21.38;54.94
71559;BME280;59382;43.852;25.952;2023-09-18T02:55:50;101813.44;;;21.26;55.18
71559;BME280;59382;43.852;25.952;2023-09-18T02:58:16;101828.25;;;21.25;55.11
71559;BME280;59382;43.852;25.952;2023-09-18T03:00:43;101812.31;;;21.22;55.15
71559;BME280;59382;43.852;25.952;2023-09-18T03:03:09;101824.38;;;21.21;55.06
71559;BME280;59382;43.852;25.952;2023-09-18T03:05:35;101830.94;;;21.20;55.25
71559;BME280;59382;43.852;25.952;2023-09-18T03:08:02;101812.69;;;21.09;55.13
71559;BME280;59382;43.852;25.952;2023-09-18T03:10:27;101830.81;;;21.10;55.18
71559;BME280;59382;43.852;25.952;2023-09-18T03:12:53;101823.84;;;21.03;54.99
71559;BME280;59382;43.852;25.952;2023-09-18T03:15:18;101832.41;;;21.06;55.26
71559;BME280;59382;43.852;25.952;2023-09-18T03:17:44;101840.66;;;21.06;55.43
71559;BME280;59382;43.852;25.952;2023-09-18T03:20:10;101838.66;;;21.02;55.53
71559;BME280;59382;43.852;25.952;2023-09-18T03:22:35;101830.00;;;20.93;55.38
71559;BME280;59382;43.852;25.952;2023-09-18T03:25:01;101835.84;;;20.97;55.62
71559;BME280;59382;43.852;25.952;2023-09-18T03:27:26;101832.16;;;20.91;55.48
71559;BME280;59382;43.852;25.952;2023-09-18T03:29:58;101845.50;;;20.99;55.64
71559;BME280;59382;43.852;25.952;2023-09-18T03:32:23;101822.69;;;20.82;55.54
71559;BME280;59382;43.852;25.952;2023-09-18T03:34:52;101832.66;;;20.88;55.60
71559;BME280;59382;43.852;25.952;2023-09-18T03:37:18;101855.28;;;20.95;55.62
71559;BME280;59382;43.852;25.952;2023-09-18T03:39:43;101845.88;;;20.91;55.63
71559;BME280;59382;43.852;25.952;2023-09-18T03:42:09;101846.13;;;20.90;55.70
71559;BME280;59382;43.852;25.952;2023-09-18T03:44:35;101849.13;;;20.88;55.66
71559;BME280;59382;43.852;25.952;2023-09-18T03:47:01;101837.41;;;20.76;55.61
71559;BME280;59382;43.852;25.952;2023-09-18T03:49:27;101839.50;;;20.69;55.81
71559;BME280;59382;43.852;25.952;2023-09-18T03:51:53;101857.72;;;20.75;56.05
71559;BME280;59382;43.852;25.952;2023-09-18T03:54:19;101867.00;;;20.74;55.94
71559;BME280;59382;43.852;25.952;2023-09-18T03:56:44;101850.38;;;20.64;55.95
71559;BME280;59382;43.852;25.952;2023-09-18T03:59:14;101869.09;;;20.67;56.10
71559;BME280;59382;43.852;25.952;2023-09-18T04:01:39;101850.00;;;20.56;56.28
71559;BME280;59382;43.852;25.952;2023-09-18T04:04:05;101873.44;;;20.63;56.36
71559;BME280;59382;43.852;25.952;2023-09-18T04:06:40;101858.47;;;20.54;56.44
71559;BME280;59382;43.852;25.952;2023-09-18T04:09:08;101861.28;;;20.59;56.37
71559;BME280;59382;43.852;25.952;2023-09-18T04:11:33;101852.97;;;20.54;56.78
71559;BME280;59382;43.852;25.952;2023-09-18T04:14:00;101870.59;;;20.58;56.35
71559;BME280;59382;43.852;25.952;2023-09-18T04:16:26;101865.59;;;20.55;56.35
71559;BME280;59382;43.852;25.952;2023-09-18T04:19:02;101863.34;;;20.52;56.27
71559;BME280;59382;43.852;25.952;2023-09-18T04:21:28;101860.63;;;20.52;56.65
71559;BME280;59382;43.852;25.952;2023-09-18T04:23:57;101869.25;;;20.61;56.57
71559;BME280;59382;43.852;25.952;2023-09-18T04:26:24;101860.63;;;20.52;56.53
71559;BME280;59382;43.852;25.952;2023-09-18T04:28:55;101865.03;;;20.53;56.46
71559;BME280;59382;43.852;25.952;2023-09-18T04:31:20;101866.03;;;20.47;56.75
71559;BME280;59382;43.852;25.952;2023-09-18T04:33:46;101858.81;;;20.41;56.80
71559;BME280;59382;43.852;25.952;2023-09-18T04:36:12;101877.00;;;20.47;56.72
71559;BME280;59382;43.852;25.952;2023-09-18T04:38:37;101867.59;;;20.43;56.98
71559;BME280;59382;43.852;25.952;2023-09-18T04:41:03;101878.56;;;20.43;56.95
71559;BME280;59382;43.852;25.952;2023-09-18T04:43:28;101878.56;;;20.43;57.43
71559;BME280;59382;43.852;25.952;2023-09-18T04:45:56;101871.25;;;20.32;57.22
71559;BME280;59382;43.852;25.952;2023-09-18T04:48:22;101882.22;;;20.32;57.37
71559;BME280;59382;43.852;25.952;2023-09-18T04:50:48;101887.47;;;20.34;57.65
71559;BME280;59382;43.852;25.952;2023-09-18T04:53:14;101871.41;;;20.26;57.61
71559;BME280;59382;43.852;25.952;2023-09-18T04:55:50;101884.63;;;20.29;57.91
71559;BME280;59382;43.852;25.952;2023-09-18T04:58:19;101894.84;;;20.33;57.95
71559;BME280;59382;43.852;25.952;2023-09-18T05:00:44;101892.69;;;20.35;57.85
71559;BME280;59382;43.852;25.952;2023-09-18T05:03:12;101881.03;;;20.28;57.87
71559;BME280;59382;43.852;25.952;2023-09-18T05:05:43;101866.59;;;20.33;57.93
71559;BME280;59382;43.852;25.952;2023-09-18T05:08:22;101882.91;;;20.56;58.10
71559;BME280;59382;43.852;25.952;2023-09-18T05:10:48;101868.59;;;20.70;57.58
71559;BME280;59382;43.852;25.952;2023-09-18T05:13:39;101878.56;;;21.09;57.15
71559;BME280;59382;43.852;25.952;2023-09-18T05:16:10;101881.16;;;21.38;57.00
71559;BME280;59382;43.852;25.952;2023-09-18T05:18:35;101866.88;;;21.62;56.61
71559;BME280;59382;43.852;25.952;2023-09-18T05:21:17;101878.75;;;22.11;56.00
71559;BME280;59382;43.852;25.952;2023-09-18T05:23:51;101869.97;;;22.45;55.13
71559;BME280;59382;43.852;25.952;2023-09-18T05:26:19;101884.16;;;22.90;54.56
71559;BME280;59382;43.852;25.952;2023-09-18T05:28:45;101886.91;;;23.27;53.80
71559;BME280;59382;43.852;25.952;2023-09-18T05:31:16;101887.38;;;23.19;53.26
71559;BME280;59382;43.852;25.952;2023-09-18T05:33:45;101883.88;;;22.92;53.84
71559;BME280;59382;43.852;25.952;2023-09-18T05:36:13;101889.63;;;22.85;53.75
71559;BME280;59382;43.852;25.952;2023-09-18T05:38:40;101889.38;;;22.92;53.72
71559;BME280;59382;43.852;25.952;2023-09-18T05:41:05;101880.16;;;23.13;53.52
71559;BME280;59382;43.852;25.952;2023-09-18T05:43:31;101891.22;;;23.70;52.91
71559;BME280;59382;43.852;25.952;2023-09-18T05:45:56;101889.44;;;24.15;51.76
71559;BME280;59382;43.852;25.952;2023-09-18T05:48:22;101881.50;;;24.54;51.33
71559;BME280;59382;43.852;25.952;2023-09-18T05:50:47;101874.03;;;24.89;50.70
71559;BME280;59382;43.852;25.952;2023-09-18T05:53:13;101892.19;;;25.26;49.88
71559;BME280;59382;43.852;25.952;2023-09-18T05:55:39;101883.91;;;25.36;49.42
71559;BME280;59382;43.852;25.952;2023-09-18T05:58:05;101892.69;;;25.53;49.02
71559;BME280;59382;43.852;25.952;2023-09-18T06:00:32;101890.78;;;25.53;48.06
71559;BME280;59382;43.852;25.952;2023-09-18T06:02:58;101864.03;;;25.34;48.39
71559;BME280;59382;43.852;25.952;2023-09-18T06:05:24;101881.63;;;25.58;48.32
71559;BME280;59382;43.852;25.952;2023-09-18T06:07:50;101885.47;;;25.67;48.07
71559;BME280;59382;43.852;25.952;2023-09-18T06:10:16;101883.16;;;25.79;48.01
71559;BME280;59382;43.852;25.952;2023-09-18T06:12:44;101899.41;;;26.05;47.85
71559;BME280;59382;43.852;25.952;2023-09-18T06:15:10;101884.28;;;26.26;47.45
71559;BME280;59382;43.852;25.952;2023-09-18T06:17:41;101898.00;;;26.46;46.64
71559;BME280;59382;43.852;25.952;2023-09-18T06:20:08;101900.41;;;26.63;46.69
71559;BME280;59382;43.852;25.952;2023-09-18T06:22:41;101884.75;;;26.77;46.21
71559;BME280;59382;43.852;25.952;2023-09-18T06:25:08;101909.47;;;27.02;45.90
71559;BME280;59382;43.852;25.952;2023-09-18T06:27:38;101898.09;;;27.04;45.76
71559;BME280;59382;43.852;25.952;2023-09-18T06:30:05;101898.38;;;27.02;45.72
71559;BME280;59382;43.852;25.952;2023-09-18T06:32:30;101889.19;;;27.07;45.25
71559;BME280;59382;43.852;25.952;2023-09-18T06:34:56;101904.53;;;27.23;45.29
71559;BME280;59382;43.852;25.952;2023-09-18T06:37:24;101900.22;;;27.40;44.61
71559;BME280;59382;43.852;25.952;2023-09-18T06:39:50;101905.41;;;27.47;44.77
71559;BME280;59382;43.852;25.952;2023-09-18T06:42:16;101905.56;;;27.55;44.44
71559;BME280;59382;43.852;25.952;2023-09-18T06:44:42;101887.81;;;27.56;44.17
71559;BME280;59382;43.852;25.952;2023-09-18T06:47:07;101901.53;;;27.66;44.19
71559;BME280;59382;43.852;25.952;2023-09-18T06:49:33;101891.56;;;27.65;44.34
71559;BME280;59382;43.852;25.952;2023-09-18T06:51:59;101911.38;;;27.77;44.08
71559;BME280;59382;43.852;25.952;2023-09-18T06:54:25;101896.03;;;27.85;44.06
71559;BME280;59382;43.852;25.952;2023-09-18T06:56:51;101876.34;;;27.86;43.82
71559;BME280;59382;43.852;25.952;2023-09-18T06:59:16;101890.38;;;27.95;43.40
71559;BME280;59382;43.852;25.952;2023-09-18T07:01:42;101874.75;;;27.80;43.35
71559;BME280;59382;43.852;25.952;2023-09-18T07:04:08;101888.06;;;27.78;43.79
71559;BME280;59382;43.852;25.952;2023-09-18T07:06:34;101901.84;;;27.88;43.59
71559;BME280;59382;43.852;25.952;2023-09-18T07:08:59;101909.91;;;27.85;43.67
71559;BME280;59382;43.852;25.952;2023-09-18T07:11:25;101913.72;;;27.70;43.54
71559;BME280;59382;43.852;25.952;2023-09-18T07:13:51;101914.94;;;27.59;43.83
71559;BME280;59382;43.852;25.952;2023-09-18T07:16:16;101900.06;;;27.50;43.94
71559;BME280;59382;43.852;25.952;2023-09-18T07:18:42;101909.41;;;27.59;43.95
71559;BME280;59382;43.852;25.952;2023-09-18T07:21:07;101895.00;;;27.57;43.62
71559;BME280;59382;43.852;25.952;2023-09-18T07:23:33;101905.97;;;27.67;43.86
71559;BME280;59382;43.852;25.952;2023-09-18T07:26:02;101910.69;;;27.67;43.63
71559;BME280;59382;43.852;25.952;2023-09-18T07:28:28;101902.22;;;27.58;43.57
71559;BME280;59382;43.852;25.952;2023-09-18T07:30:53;101906.91;;;27.58;43.84
71559;BME280;59382;43.852;25.952;2023-09-18T07:33:19;101914.59;;;27.66;43.85
71559;BME280;59382;43.852;25.952;2023-09-18T07:35:48;101901.63;;;27.61;43.71
71559;BME280;59382;43.852;25.952;2023-09-18T07:38:14;101906.19;;;27.71;43.86
71559;BME280;59382;43.852;25.952;2023-09-18T07:40:40;101900.34;;;27.72;43.63
71559;BME280;59382;43.852;25.952;2023-09-18T07:43:06;101903.59;;;27.79;43.37
71559;BME280;59382;43.852;25.952;2023-09-18T07:45:31;101898.13;;;27.74;43.31
71559;BME280;59382;43.852;25.952;2023-09-18T07:47:57;101908.66;;;27.72;43.49
71559;BME280;59382;43.852;25.952;2023-09-18T07:50:22;101887.81;;;27.56;43.77
71559;BME280;59382;43.852;25.952;2023-09-18T07:52:48;101890.81;;;27.60;43.89
71559;BME280;59382;43.852;25.952;2023-09-18T07:55:14;101916.00;;;27.63;43.45
71559;BME280;59382;43.852;25.952;2023-09-18T07:57:40;101910.00;;;27.56;43.43
71559;BME280;59382;43.852;25.952;2023-09-18T08:00:06;101915.13;;;27.44;43.29
71559;BME280;59382;43.852;25.952;2023-09-18T08:02:36;101901.50;;;27.19;43.71
71559;BME280;59382;43.852;25.952;2023-09-18T08:05:03;101911.16;;;27.27;43.72
71559;BME280;59382;43.852;25.952;2023-09-18T08:07:30;101871.16;;;27.09;43.51
71559;BME280;59382;43.852;25.952;2023-09-18T08:09:56;101907.25;;;27.28;43.09
71559;BME280;59382;43.852;25.952;2023-09-18T08:12:23;101899.59;;;27.20;43.18
71559;BME280;59382;43.852;25.952;2023-09-18T08:14:48;101899.78;;;27.23;43.28
71559;BME280;59382;43.852;25.952;2023-09-18T08:17:15;101895.44;;;27.17;43.19
71559;BME280;59382;43.852;25.952;2023-09-18T08:19:41;101886.72;;;27.05;43.19
71559;BME280;59382;43.852;25.952;2023-09-18T08:22:09;101892.25;;;27.05;43.45
71559;BME280;59382;43.852;25.952;2023-09-18T08:24:37;101887.53;;;27.06;43.28
71559;BME280;59382;43.852;25.952;2023-09-18T08:27:02;101895.09;;;26.95;43.36
71559;BME280;59382;43.852;25.952;2023-09-18T08:29:28;101872.72;;;26.63;43.40
71559;BME280;59382;43.852;25.952;2023-09-18T08:31:54;101846.06;;;26.33;43.73
71559;BME280;59382;43.852;25.952;2023-09-18T08:34:19;101872.25;;;26.46;43.65
71559;BME280;59382;43.852;25.952;2023-09-18T08:36:45;101880.53;;;26.51;43.70
71559;BME280;59382;43.852;25.952;2023-09-18T08:39:10;101878.78;;;26.60;43.42
71559;BME280;59382;43.852;25.952;2023-09-18T08:41:39;101868.41;;;26.42;43.66
71559;BME280;59382;43.852;25.952;2023-09-18T08:44:07;101879.00;;;26.35;43.79
71559;BME280;59382;43.852;25.952;2023-09-18T08:46:34;101857.25;;;26.18;43.88
71559;BME280;59382;43.852;25.952;2023-09-18T08:49:00;101874.06;;;26.27;43.58
71559;BME280;59382;43.852;25.952;2023-09-18T08:51:26;101863.66;;;26.14;43.97
71559;BME280;59382;43.852;25.952;2023-09-18T08:53:54;101857.13;;;25.95;44.20
71559;BME280;59382;43.852;25.952;2023-09-18T08:56:21;101849.72;;;25.80;44.27
71559;BME280;59382;43.852;25.952;2023-09-18T08:58:47;101874.06;;;25.78;44.83
71559;BME280;59382;43.852;25.952;2023-09-18T09:01:13;101862.47;;;25.76;45.11
71559;BME280;59382;43.852;25.952;2023-09-18T09:03:40;101846.72;;;25.72;44.84
71559;BME280;59382;43.852;25.952;2023-09-18T09:06:06;101874.03;;;25.83;44.62
71559;BME280;59382;43.852;25.952;2023-09-18T09:08:33;101866.56;;;25.89;44.43
71559;BME280;59382;43.852;25.952;2023-09-18T09:10:59;101866.50;;;25.99;44.39
71559;BME280;59382;43.852;25.952;2023-09-18T09:13:25;101861.81;;;25.99;44.50
71559;BME280;59382;43.852;25.952;2023-09-18T09:15:55;101849.91;;;25.99;44.59
71559;BME280;59382;43.852;25.952;2023-09-18T09:18:24;101830.06;;;25.87;44.39
71559;BME280;59382;43.852;25.952;2023-09-18T09:21:03;101842.75;;;25.88;44.59
71559;BME280;59382;43.852;25.952;2023-09-18T09:23:51;101820.69;;;25.78;44.33
71559;BME280;59382;43.852;25.952;2023-09-18T09:26:19;101838.66;;;25.80;44.55
71559;BME280;59382;43.852;25.952;2023-09-18T09:28:45;101851.66;;;25.80;44.30
71559;BME280;59382;43.852;25.952;2023-09-18T09:31:26;101835.38;;;25.78;44.41
71559;BME280;59382;43.852;25.952;2023-09-18T09:33:53;101829.59;;;25.70;44.67
71559;BME280;59382;43.852;25.952;2023-09-18T09:36:22;101834.59;;;25.63;44.53
71559;BME280;59382;43.852;25.952;2023-09-18T09:38:48;101830.22;;;25.57;44.96
71559;BME280;59382;43.852;25.952;2023-09-18T09:41:15;101817.50;;;25.56;44.76
71559;BME280;59382;43.852;25.952;2023-09-18T09:43:44;101825.09;;;25.84;44.47
71559;BME280;59382;43.852;25.952;2023-09-18T09:46:17;101818.41;;;25.95;43.86
71559;BME280;59382;43.852;25.952;2023-09-18T09:49:03;101826.69;;;25.95;44.14
71559;BME280;59382;43.852;25.952;2023-09-18T09:51:30;101810.47;;;25.78;44.27
71559;BME280;59382;43.852;25.952;2023-09-18T09:53:58;101806.94;;;25.68;43.95
71559;BME280;59382;43.852;25.952;2023-09-18T09:56:49;101813.06;;;25.60;44.31
71559;BME280;59382;43.852;25.952;2023-09-18T09:59:20;101811.47;;;25.49;44.49
71559;BME280;59382;43.852;25.952;2023-09-18T10:01:46;101813.13;;;25.50;44.67
71559;BME280;59382;43.852;25.952;2023-09-18T10:04:16;101810.28;;;25.65;44.38
71559;BME280;59382;43.852;25.952;2023-09-18T10:06:44;101811.91;;;25.71;44.38
71559;BME280;59382;43.852;25.952;2023-09-18T10:09:12;101783.72;;;25.69;43.95
71559;BME280;59382;43.852;25.952;2023-09-18T10:11:44;101797.47;;;25.79;43.76
71559;BME280;59382;43.852;25.952;2023-09-18T10:14:16;101780.91;;;25.74;43.66
71559;BME280;59382;43.852;25.952;2023-09-18T10:16:49;101791.41;;;25.77;43.67
71559;BME280;59382;43.852;25.952;2023-09-18T10:19:28;101797.50;;;25.74;43.75
71559;BME280;59382;43.852;25.952;2023-09-18T10:24:54;101771.13;;;25.86;43.55
71559;BME280;59382;43.852;25.952;2023-09-18T10:27:26;101773.63;;;25.88;43.42
71559;BME280;59382;43.852;25.952;2023-09-18T10:29:53;101776.38;;;25.88;43.54
71559;BME280;59382;43.852;25.952;2023-09-18T10:32:20;101765.41;;;25.78;43.79
71559;BME280;59382;43.852;25.952;2023-09-18T10:34:48;101777.59;;;25.77;44.21
71559;BME280;59382;43.852;25.952;2023-09-18T10:37:15;101779.78;;;25.75;44.27
71559;BME280;59382;43.852;25.952;2023-09-18T10:39:41;101767.69;;;25.66;44.17
71559;BME280;59382;43.852;25.952;2023-09-18T10:42:09;101771.56;;;25.65;44.46
71559;BME280;59382;43.852;25.952;2023-09-18T10:44:35;101768.75;;;25.70;44.05
71559;BME280;59382;43.852;25.952;2023-09-18T10:47:03;101769.38;;;25.67;44.29
71559;BME280;59382;43.852;25.952;2023-09-18T10:49:34;101765.47;;;25.68;44.20
71559;BME280;59382;43.852;25.952;2023-09-18T10:52:01;101752.78;;;25.67;44.01
71559;BME280;59382;43.852;25.952;2023-09-18T10:54:28;101748.09;;;25.62;44.30
71559;BME280;59382;43.852;25.952;2023-09-18T10:57:23;101743.34;;;25.68;43.90
71559;BME280;59382;43.852;25.952;2023-09-18T10:59:57;101757.41;;;25.76;43.71
71559;BME280;59382;43.852;25.952;2023-09-18T11:03:17;101743.84;;;25.75;44.06
71559;BME280;59382;43.852;25.952;2023-09-18T11:06:09;101742.22;;;25.74;43.72
71559;BME280;59382;43.852;25.952;2023-09-18T11:08:59;101734.38;;;25.86;43.65
71559;BME280;59382;43.852;25.952;2023-09-18T11:11:30;101731.06;;;25.84;43.12
71559;BME280;59382;43.852;25.952;2023-09-18T11:13:59;101720.00;;;25.84;43.03
71559;BME280;59382;43.852;25.952;2023-09-18T11:16:37;101737.66;;;25.98;42.83
71559;BME280;59382;43.852;25.952;2023-09-18T11:21:34;101731.53;;;25.96;42.09
71559;BME280;59382;43.852;25.952;2023-09-18T11:24:19;101737.91;;;25.96;42.18
71559;BME280;59382;43.852;25.952;2023-09-18T11:26:46;101724.09;;;25.91;41.68
71559;BME280;59382;43.852;25.952;2023-09-18T11:29:18;101689.03;;;25.82;41.41
71559;BME280;59382;43.852;25.952;2023-09-18T11:31:49;101703.88;;;26.01;41.40
71559;BME280;59382;43.852;25.952;2023-09-18T11:34:28;101739.94;;;26.19;41.09
71559;BME280;59382;43.852;25.952;2023-09-18T11:37:00;101731.06;;;26.22;40.98
71559;BME280;59382;43.852;25.952;2023-09-18T11:39:41;101731.81;;;26.28;40.83
71559;BME280;59382;43.852;25.952;2023-09-18T11:42:17;101705.84;;;26.24;40.40
71559;BME280;59382;43.852;25.952;2023-09-18T11:44:44;101714.69;;;26.26;40.41
71559;BME280;59382;43.852;25.952;2023-09-18T11:47:18;101717.47;;;26.26;40.45
71559;BME280;59382;43.852;25.952;2023-09-18T11:52:20;101694.78;;;26.24;40.35
71559;BME280;59382;43.852;25.952;2023-09-18T11:54:47;101693.03;;;26.33;40.22
71559;BME280;59382;43.852;25.952;2023-09-18T11:57:13;101705.84;;;26.52;39.75
71559;BME280;59382;43.852;25.952;2023-09-18T11:59:41;101690.06;;;26.53;39.41
71559;BME280;59382;43.852;25.952;2023-09-18T12:02:09;101705.41;;;26.69;39.70
71559;BME280;59382;43.852;25.952;2023-09-18T12:04:35;101710.56;;;26.75;39.26
71559;BME280;59382;43.852;25.952;2023-09-18T12:07:03;101712.25;;;26.76;38.96
71559;BME280;59382;43.852;25.952;2023-09-18T12:09:31;101693.25;;;26.65;39.45
71559;BME280;59382;43.852;25.952;2023-09-18T12:11:58;101691.34;;;26.60;39.48
71559;BME280;59382;43.852;25.952;2023-09-18T12:14:33;101683.94;;;26.56;39.78
71559;BME280;59382;43.852;25.952;2023-09-18T12:17:01;101671.88;;;26.47;39.97
71559;BME280;59382;43.852;25.952;2023-09-18T12:19:28;101691.72;;;26.54;40.05
71559;BME280;59382;43.852;25.952;2023-09-18T12:21:54;101686.22;;;26.49;39.98
71559;BME280;59382;43.852;25.952;2023-09-18T12:24:25;101673.56;;;26.43;40.30
71559;BME280;59382;43.852;25.952;2023-09-18T12:26:52;101674.63;;;26.47;40.33
71559;BME280;59382;43.852;25.952;2023-09-18T12:29:18;101681.81;;;26.48;40.04
71559;BME280;59382;43.852;25.952;2023-09-18T12:31:44;101679.00;;;26.53;40.35
71559;BME280;59382;43.852;25.952;2023-09-18T12:34:19;101674.50;;;26.57;39.84
71559;BME280;59382;43.852;25.952;2023-09-18T12:36:49;101671.16;;;26.60;39.95
71559;BME280;59382;43.852;25.952;2023-09-18T12:39:16;101656.31;;;26.51;39.75
71559;BME280;59382;43.852;25.952;2023-09-18T12:41:48;101663.44;;;26.57;39.52
71559;BME280;59382;43.852;25.952;2023-09-18T12:44:15;101681.59;;;26.68;39.36
71559;BME280;59382;43.852;25.952;2023-09-18T12:46:42;101667.25;;;26.66;39.34
71559;BME280;59382;43.852;25.952;2023-09-18T12:49:21;101654.88;;;26.53;39.34
71559;BME280;59382;43.852;25.952;2023-09-18T12:51:57;101649.06;;;26.55;39.30
71559;BME280;59382;43.852;25.952;2023-09-18T12:54:43;101657.56;;;26.63;39.52
71559;BME280;59382;43.852;25.952;2023-09-18T12:57:11;101649.06;;;26.55;39.64
71559;BME280;59382;43.852;25.952;2023-09-18T12:59:40;101657.31;;;26.60;39.65